sensor_id;sensor_type;location;lat;lon;timestamp;P1;durP1;ratioP1;P2;durP2;ratioP2
37288;SDS011;23174;49.462;11.000;2023-03-19T00:00:16;13.63;;;10.50;;
37288;SDS011;23174;49.462;11.000;2023-03-19T00:02:18;14.55;;;10.93;;
37288;SDS011;23174;49.462;11.000;2023-03-19T00:04:18;10.18;;;9.18;;
37288;SDS011;23174;49.462;11.000;2023-03-19T00:06:19;10.68;;;8.80;;
37288;SDS011;23174;49.462;11.000;2023-03-19T00:08:20;9.70;;;8.43;;
37288;SDS011;23174;49.462;11.000;2023-03-19T00:10:21;9.85;;;8.35;;
37288;SDS011;23174;49.462;11.000;2023-03-19T00:12:22;11.52;;;8.43;;
37288;SDS011;23174;49.462;11.000;2023-03-19T00:14:22;10.90;;;8.52;;
37288;SDS011;23174;49.462;11.000;2023-03-19T00:16:23;10.70;;;8.35;;
37288;SDS011;23174;49.462;11.000;2023-03-19T00:18:24;11.02;;;8.80;;
37288;SDS011;23174;49.462;11.000;2023-03-19T00:20:24;9.18;;;8.13;;
37288;SDS011;23174;49.462;11.000;2023-03-19T00:22:25;12.35;;;9.43;;
37288;SDS011;23174;49.462;11.000;2023-03-19T00:24:25;9.50;;;8.65;;
37288;SDS011;23174;49.462;11.000;2023-03-19T00:26:27;12.80;;;8.52;;
37288;SDS011;23174;49.462;11.000;2023-03-19T00:28:29;16.38;;;9.48;;
37288;SDS011;23174;49.462;11.000;2023-03-19T00:30:29;12.63;;;8.82;;
37288;SDS011;23174;49.462;11.000;2023-03-19T00:32:30;10.63;;;8.73;;
37288;SDS011;23174;49.462;11.000;2023-03-19T00:34:32;11.85;;;8.52;;
37288;SDS011;23174;49.462;11.000;2023-03-19T00:36:33;10.73;;;8.95;;
37288;SDS011;23174;49.462;11.000;2023-03-19T00:38:33;15.43;;;8.82;;
37288;SDS011;23174;49.462;11.000;2023-03-19T00:40:37;15.65;;;8.85;;
37288;SDS011;23174;49.462;11.000;2023-03-19T00:42:38;11.27;;;8.73;;
37288;SDS011;23174;49.462;11.000;2023-03-19T00:44:39;9.52;;;8.27;;
37288;SDS011;23174;49.462;11.000;2023-03-19T00:46:39;13.82;;;8.73;;
37288;SDS011;23174;49.462;11.000;2023-03-19T00:48:40;10.65;;;8.82;;
37288;SDS011;23174;49.462;11.000;2023-03-19T00:50:40;14.95;;;11.30;;
37288;SDS011;23174;49.462;11.000;2023-03-19T00:52:41;18.17;;;12.45;;
37288;SDS011;23174;49.462;11.000;2023-03-19T00:54:41;14.57;;;11.20;;
37288;SDS011;23174;49.462;11.000;2023-03-19T00:56:42;14.05;;;8.88;;
37288;SDS011;23174;49.462;11.000;2023-03-19T00:58:43;13.40;;;9.82;;
37288;SDS011;23174;49.462;11.000;2023-03-19T01:00:44;13.45;;;10.45;;
37288;SDS011;23174;49.462;11.000;2023-03-19T01:02:45;11.70;;;9.43;;
37288;SDS011;23174;49.462;11.000;2023-03-19T01:04:48;18.10;;;10.02;;
37288;SDS011;23174;49.462;11.000;2023-03-19T01:06:49;11.45;;;9.35;;
37288;SDS011;23174;49.462;11.000;2023-03-19T01:08:50;12.88;;;8.98;;
37288;SDS011;23174;49.462;11.000;2023-03-19T01:10:51;11.13;;;8.40;;
37288;SDS011;23174;49.462;11.000;2023-03-19T01:12:52;11.90;;;7.70;;
37288;SDS011;23174;49.462;11.000;2023-03-19T01:14:52;2.42;;;1.67;;
37288;SDS011;23174;49.462;11.000;2023-03-19T01:16:53;4.32;;;1.33;;
37288;SDS011;23174;49.462;11.000;2023-03-19T01:18:53;2.03;;;1.73;;
37288;SDS011;23174;49.462;11.000;2023-03-19T01:20:54;2.08;;;1.88;;
37288;SDS011;23174;49.462;11.000;2023-03-19T01:22:55;1.33;;;1.25;;
37288;SDS011;23174;49.462;11.000;2023-03-19T01:24:55;0.85;;;0.77;;
37288;SDS011;23174;49.462;11.000;2023-03-19T01:26:56;6.75;;;4.93;;
37288;SDS011;23174;49.462;11.000;2023-03-19T01:28:57;9.77;;;8.15;;
37288;SDS011;23174;49.462;11.000;2023-03-19T01:30:58;13.38;;;9.75;;
37288;SDS011;23174;49.462;11.000;2023-03-19T01:33:00;12.15;;;8.82;;
37288;SDS011;23174;49.462;11.000;2023-03-19T01:35:01;10.90;;;8.35;;
37288;SDS011;23174;49.462;11.000;2023-03-19T01:37:01;10.10;;;8.60;;
37288;SDS011;23174;49.462;11.000;2023-03-19T01:39:02;14.98;;;9.43;;
37288;SDS011;23174;49.462;11.000;2023-03-19T01:41:03;14.32;;;8.57;;
37288;SDS011;23174;49.462;11.000;2023-03-19T01:43:37;10.73;;;9.00;;
37288;SDS011;23174;49.462;11.000;2023-03-19T01:45:35;13.38;;;8.90;;
37288;SDS011;23174;49.462;11.000;2023-03-19T01:47:38;12.15;;;9.60;;
37288;SDS011;23174;49.462;11.000;2023-03-19T01:49:42;10.63;;;9.13;;
37288;SDS011;23174;49.462;11.000;2023-03-19T01:51:46;9.57;;;8.50;;
37288;SDS011;23174;49.462;11.000;2023-03-19T01:53:48;10.05;;;8.70;;
37288;SDS011;23174;49.462;11.000;2023-03-19T01:55:54;12.73;;;8.88;;
37288;SDS011;23174;49.462;11.000;2023-03-19T01:57:59;12.05;;;8.13;;
37288;SDS011;23174;49.462;11.000;2023-03-19T02:00:00;11.57;;;8.02;;
37288;SDS011;23174;49.462;11.000;2023-03-19T02:02:14;10.60;;;8.25;;
37288;SDS011;23174;49.462;11.000;2023-03-19T02:04:25;9.90;;;8.23;;
37288;SDS011;23174;49.462;11.000;2023-03-19T02:06:28;10.68;;;8.27;;
37288;SDS011;23174;49.462;11.000;2023-03-19T02:08:29;13.85;;;7.88;;
37288;SDS011;23174;49.462;11.000;2023-03-19T02:10:31;10.27;;;7.50;;
37288;SDS011;23174;49.462;11.000;2023-03-19T02:12:32;10.35;;;7.30;;
37288;SDS011;23174;49.462;11.000;2023-03-19T02:14:33;8.35;;;7.53;;
37288;SDS011;23174;49.462;11.000;2023-03-19T02:16:34;9.65;;;7.65;;
37288;SDS011;23174;49.462;11.000;2023-03-19T02:18:34;11.10;;;7.63;;
37288;SDS011;23174;49.462;11.000;2023-03-19T02:20:42;10.35;;;7.57;;
37288;SDS011;23174;49.462;11.000;2023-03-19T02:23:00;9.82;;;7.97;;
37288;SDS011;23174;49.462;11.000;2023-03-19T02:25:15;12.82;;;8.20;;
37288;SDS011;23174;49.462;11.000;2023-03-19T02:27:22;13.55;;;8.07;;
37288;SDS011;23174;49.462;11.000;2023-03-19T02:29:23;11.27;;;7.70;;
37288;SDS011;23174;49.462;11.000;2023-03-19T02:31:24;8.93;;;8.05;;
37288;SDS011;23174;49.462;11.000;2023-03-19T02:33:24;10.43;;;7.78;;
37288;SDS011;23174;49.462;11.000;2023-03-19T02:35:25;10.40;;;7.68;;
37288;SDS011;23174;49.462;11.000;2023-03-19T02:37:28;10.68;;;8.00;;
37288;SDS011;23174;49.462;11.000;2023-03-19T02:39:38;8.82;;;7.85;;
37288;SDS011;23174;49.462;11.000;2023-03-19T02:41:43;11.85;;;7.55;;
37288;SDS011;23174;49.462;11.000;2023-03-19T02:43:44;9.73;;;7.85;;
37288;SDS011;23174;49.462;11.000;2023-03-19T02:45:45;10.35;;;7.82;;
37288;SDS011;23174;49.462;11.000;2023-03-19T02:47:46;8.25;;;7.55;;
37288;SDS011;23174;49.462;11.000;2023-03-19T02:49:46;10.55;;;7.50;;
37288;SDS011;23174;49.462;11.000;2023-03-19T02:51:47;9.15;;;7.45;;
37288;SDS011;23174;49.462;11.000;2023-03-19T02:53:48;10.82;;;7.25;;
37288;SDS011;23174;49.462;11.000;2023-03-19T02:55:48;10.05;;;7.68;;
37288;SDS011;23174;49.462;11.000;2023-03-19T02:57:49;10.68;;;7.55;;
37288;SDS011;23174;49.462;11.000;2023-03-19T02:59:49;10.07;;;7.63;;
37288;SDS011;23174;49.462;11.000;2023-03-19T03:01:50;10.23;;;7.72;;
37288;SDS011;23174;49.462;11.000;2023-03-19T03:03:51;8.80;;;7.43;;
37288;SDS011;23174;49.462;11.000;2023-03-19T03:05:51;10.40;;;8.25;;
37288;SDS011;23174;49.462;11.000;2023-03-19T03:07:52;8.73;;;7.38;;
37288;SDS011;23174;49.462;11.000;2023-03-19T03:09:53;13.90;;;7.97;;
37288;SDS011;23174;49.462;11.000;2023-03-19T03:11:53;10.27;;;7.97;;
37288;SDS011;23174;49.462;11.000;2023-03-19T03:13:54;9.73;;;8.30;;
37288;SDS011;23174;49.462;11.000;2023-03-19T03:15:55;8.98;;;7.68;;
37288;SDS011;23174;49.462;11.000;2023-03-19T03:17:55;9.80;;;7.70;;
37288;SDS011;23174;49.462;11.000;2023-03-19T03:19:56;8.15;;;7.35;;
37288;SDS011;23174;49.462;11.000;2023-03-19T03:21:57;8.52;;;7.63;;
37288;SDS011;23174;49.462;11.000;2023-03-19T03:23:57;10.88;;;7.57;;
37288;SDS011;23174;49.462;11.000;2023-03-19T03:25:58;12.02;;;7.82;;
37288;SDS011;23174;49.462;11.000;2023-03-19T03:27:59;10.57;;;7.85;;
37288;SDS011;23174;49.462;11.000;2023-03-19T03:29:59;8.07;;;7.13;;
37288;SDS011;23174;49.462;11.000;2023-03-19T03:32:00;8.10;;;7.28;;
37288;SDS011;23174;49.462;11.000;2023-03-19T03:34:01;8.23;;;7.43;;
37288;SDS011;23174;49.462;11.000;2023-03-19T03:36:01;7.72;;;6.78;;
37288;SDS011;23174;49.462;11.000;2023-03-19T03:38:02;8.25;;;6.68;;
37288;SDS011;23174;49.462;11.000;2023-03-19T03:40:04;10.02;;;7.78;;
37288;SDS011;23174;49.462;11.000;2023-03-19T03:42:07;9.57;;;7.05;;
37288;SDS011;23174;49.462;11.000;2023-03-19T03:44:08;10.38;;;7.32;;
37288;SDS011;23174;49.462;11.000;2023-03-19T03:46:09;10.48;;;7.10;;
37288;SDS011;23174;49.462;11.000;2023-03-19T03:48:10;7.45;;;6.68;;
37288;SDS011;23174;49.462;11.000;2023-03-19T03:50:10;8.65;;;7.57;;
37288;SDS011;23174;49.462;11.000;2023-03-19T03:52:11;9.32;;;7.45;;
37288;SDS011;23174;49.462;11.000;2023-03-19T03:54:12;11.13;;;7.35;;
37288;SDS011;23174;49.462;11.000;2023-03-19T03:56:13;10.15;;;7.47;;
37288;SDS011;23174;49.462;11.000;2023-03-19T03:58:13;7.53;;;6.80;;
37288;SDS011;23174;49.462;11.000;2023-03-19T04:00:14;9.52;;;6.47;;
37288;SDS011;23174;49.462;11.000;2023-03-19T04:02:14;11.65;;;6.95;;
37288;SDS011;23174;49.462;11.000;2023-03-19T04:04:15;7.55;;;6.80;;
37288;SDS011;23174;49.462;11.000;2023-03-19T04:06:18;8.18;;;6.45;;
37288;SDS011;23174;49.462;11.000;2023-03-19T04:08:20;8.70;;;6.65;;
37288;SDS011;23174;49.462;11.000;2023-03-19T04:10:21;8.38;;;7.38;;
37288;SDS011;23174;49.462;11.000;2023-03-19T04:12:22;7.55;;;6.85;;
37288;SDS011;23174;49.462;11.000;2023-03-19T04:14:23;7.13;;;6.43;;
37288;SDS011;23174;49.462;11.000;2023-03-19T04:16:24;9.77;;;6.70;;
37288;SDS011;23174;49.462;11.000;2023-03-19T04:18:24;7.47;;;6.78;;
37288;SDS011;23174;49.462;11.000;2023-03-19T04:20:25;10.40;;;5.93;;
37288;SDS011;23174;49.462;11.000;2023-03-19T04:22:26;6.13;;;5.45;;
37288;SDS011;23174;49.462;11.000;2023-03-19T04:24:27;5.90;;;5.28;;
37288;SDS011;23174;49.462;11.000;2023-03-19T04:26:28;7.13;;;5.80;;
37288;SDS011;23174;49.462;11.000;2023-03-19T04:28:29;6.25;;;5.55;;
37288;SDS011;23174;49.462;11.000;2023-03-19T04:30:30;6.28;;;5.70;;
37288;SDS011;23174;49.462;11.000;2023-03-19T04:32:31;5.85;;;5.30;;
37288;SDS011;23174;49.462;11.000;2023-03-19T04:34:32;7.88;;;5.55;;
37288;SDS011;23174;49.462;11.000;2023-03-19T04:36:33;6.10;;;5.50;;
37288;SDS011;23174;49.462;11.000;2023-03-19T04:38:34;5.53;;;5.03;;
37288;SDS011;23174;49.462;11.000;2023-03-19T04:40:35;8.98;;;5.75;;
37288;SDS011;23174;49.462;11.000;2023-03-19T04:42:35;6.55;;;5.50;;
37288;SDS011;23174;49.462;11.000;2023-03-19T04:44:36;6.22;;;5.63;;
37288;SDS011;23174;49.462;11.000;2023-03-19T04:46:37;7.00;;;6.03;;
37288;SDS011;23174;49.462;11.000;2023-03-19T04:48:38;6.60;;;5.85;;
37288;SDS011;23174;49.462;11.000;2023-03-19T04:50:39;6.63;;;5.40;;
37288;SDS011;23174;49.462;11.000;2023-03-19T04:52:49;6.25;;;5.63;;
37288;SDS011;23174;49.462;11.000;2023-03-19T04:54:51;7.88;;;5.85;;
37288;SDS011;23174;49.462;11.000;2023-03-19T04:56:52;7.15;;;5.88;;
37288;SDS011;23174;49.462;11.000;2023-03-19T04:58:52;6.38;;;5.80;;
37288;SDS011;23174;49.462;11.000;2023-03-19T05:00:53;10.43;;;5.60;;
37288;SDS011;23174;49.462;11.000;2023-03-19T05:02:54;6.72;;;6.13;;
37288;SDS011;23174;49.462;11.000;2023-03-19T05:04:54;7.20;;;6.20;;
37288;SDS011;23174;49.462;11.000;2023-03-19T05:06:55;6.40;;;5.80;;
37288;SDS011;23174;49.462;11.000;2023-03-19T05:08:57;6.50;;;5.75;;
37288;SDS011;23174;49.462;11.000;2023-03-19T05:10:58;6.55;;;5.97;;
37288;SDS011;23174;49.462;11.000;2023-03-19T05:12:59;9.20;;;6.30;;
37288;SDS011;23174;49.462;11.000;2023-03-19T05:14:59;9.15;;;5.88;;
37288;SDS011;23174;49.462;11.000;2023-03-19T05:17:00;6.82;;;6.20;;
37288;SDS011;23174;49.462;11.000;2023-03-19T05:19:01;6.53;;;5.93;;
37288;SDS011;23174;49.462;11.000;2023-03-19T05:21:02;9.75;;;6.68;;
37288;SDS011;23174;49.462;11.000;2023-03-19T05:23:04;7.03;;;6.25;;
37288;SDS011;23174;49.462;11.000;2023-03-19T05:25:05;9.50;;;6.63;;
37288;SDS011;23174;49.462;11.000;2023-03-19T05:27:06;11.23;;;6.90;;
37288;SDS011;23174;49.462;11.000;2023-03-19T05:29:07;9.38;;;6.72;;
37288;SDS011;23174;49.462;11.000;2023-03-19T05:31:09;7.72;;;6.82;;
37288;SDS011;23174;49.462;11.000;2023-03-19T05:33:10;10.77;;;7.10;;
37288;SDS011;23174;49.462;11.000;2023-03-19T05:35:12;9.02;;;6.97;;
37288;SDS011;23174;49.462;11.000;2023-03-19T05:37:13;10.48;;;7.22;;
37288;SDS011;23174;49.462;11.000;2023-03-19T05:39:13;7.63;;;6.90;;
37288;SDS011;23174;49.462;11.000;2023-03-19T05:41:14;7.53;;;6.70;;
37288;SDS011;23174;49.462;11.000;2023-03-19T05:43:14;7.57;;;6.80;;
37288;SDS011;23174;49.462;11.000;2023-03-19T05:45:15;6.75;;;6.10;;
37288;SDS011;23174;49.462;11.000;2023-03-19T05:47:16;7.97;;;5.97;;
37288;SDS011;23174;49.462;11.000;2023-03-19T05:49:17;9.32;;;6.80;;
37288;SDS011;23174;49.462;11.000;2023-03-19T05:51:18;9.07;;;6.20;;
37288;SDS011;23174;49.462;11.000;2023-03-19T05:53:19;6.82;;;6.22;;
37288;SDS011;23174;49.462;11.000;2023-03-19T05:55:20;12.38;;;6.93;;
37288;SDS011;23174;49.462;11.000;2023-03-19T05:57:21;9.02;;;6.32;;
37288;SDS011;23174;49.462;11.000;2023-03-19T05:59:21;11.40;;;6.32;;
37288;SDS011;23174;49.462;11.000;2023-03-19T06:01:27;8.48;;;6.80;;
37288;SDS011;23174;49.462;11.000;2023-03-19T06:03:28;8.50;;;6.38;;
37288;SDS011;23174;49.462;11.000;2023-03-19T06:05:28;8.30;;;6.57;;
37288;SDS011;23174;49.462;11.000;2023-03-19T06:07:29;7.60;;;6.25;;
37288;SDS011;23174;49.462;11.000;2023-03-19T06:09:29;7.68;;;6.85;;
37288;SDS011;23174;49.462;11.000;2023-03-19T06:11:30;7.90;;;6.45;;
37288;SDS011;23174;49.462;11.000;2023-03-19T06:13:32;8.23;;;6.20;;
37288;SDS011;23174;49.462;11.000;2023-03-19T06:15:32;7.50;;;6.55;;
37288;SDS011;23174;49.462;11.000;2023-03-19T06:17:33;8.15;;;6.60;;
37288;SDS011;23174;49.462;11.000;2023-03-19T06:19:34;9.52;;;6.05;;
37288;SDS011;23174;49.462;11.000;2023-03-19T06:21:35;9.13;;;6.60;;
37288;SDS011;23174;49.462;11.000;2023-03-19T06:23:36;7.63;;;6.80;;
37288;SDS011;23174;49.462;11.000;2023-03-19T06:25:36;8.15;;;6.68;;
37288;SDS011;23174;49.462;11.000;2023-03-19T06:27:37;8.98;;;6.30;;
37288;SDS011;23174;49.462;11.000;2023-03-19T06:29:38;15.50;;;7.63;;
37288;SDS011;23174;49.462;11.000;2023-03-19T06:31:39;6.90;;;6.30;;
37288;SDS011;23174;49.462;11.000;2023-03-19T06:33:40;7.18;;;6.35;;
37288;SDS011;23174;49.462;11.000;2023-03-19T06:35:44;10.57;;;6.68;;
37288;SDS011;23174;49.462;11.000;2023-03-19T06:37:45;6.40;;;5.80;;
37288;SDS011;23174;49.462;11.000;2023-03-19T06:39:46;6.82;;;6.15;;
37288;SDS011;23174;49.462;11.000;2023-03-19T06:41:48;9.07;;;6.75;;
37288;SDS011;23174;49.462;11.000;2023-03-19T06:43:49;11.27;;;6.68;;
37288;SDS011;23174;49.462;11.000;2023-03-19T06:45:50;7.22;;;6.53;;
37288;SDS011;23174;49.462;11.000;2023-03-19T06:47:51;9.80;;;6.97;;
37288;SDS011;23174;49.462;11.000;2023-03-19T06:49:52;9.38;;;6.57;;
37288;SDS011;23174;49.462;11.000;2023-03-19T06:51:53;7.80;;;6.53;;
37288;SDS011;23174;49.462;11.000;2023-03-19T06:53:53;7.20;;;6.53;;
37288;SDS011;23174;49.462;11.000;2023-03-19T06:55:55;7.25;;;6.47;;
37288;SDS011;23174;49.462;11.000;2023-03-19T06:57:56;9.05;;;7.30;;
37288;SDS011;23174;49.462;11.000;2023-03-19T06:59:56;7.68;;;6.78;;
37288;SDS011;23174;49.462;11.000;2023-03-19T07:01:57;7.43;;;6.55;;
37288;SDS011;23174;49.462;11.000;2023-03-19T07:03:58;7.85;;;7.00;;
37288;SDS011;23174;49.462;11.000;2023-03-19T07:05:58;9.82;;;7.35;;
37288;SDS011;23174;49.462;11.000;2023-03-19T07:07:59;7.22;;;6.00;;
37288;SDS011;23174;49.462;11.000;2023-03-19T07:10:00;10.20;;;6.78;;
37288;SDS011;23174;49.462;11.000;2023-03-19T07:12:01;8.90;;;6.50;;
37288;SDS011;23174;49.462;11.000;2023-03-19T07:14:02;10.95;;;7.32;;
37288;SDS011;23174;49.462;11.000;2023-03-19T07:16:03;8.07;;;7.30;;
37288;SDS011;23174;49.462;11.000;2023-03-19T07:18:05;7.07;;;6.38;;
37288;SDS011;23174;49.462;11.000;2023-03-19T07:20:05;8.38;;;6.90;;
37288;SDS011;23174;49.462;11.000;2023-03-19T07:22:07;6.80;;;6.10;;
37288;SDS011;23174;49.462;11.000;2023-03-19T07:24:07;6.97;;;5.93;;
37288;SDS011;23174;49.462;11.000;2023-03-19T07:26:08;7.90;;;5.95;;
37288;SDS011;23174;49.462;11.000;2023-03-19T07:28:10;5.85;;;5.30;;
37288;SDS011;23174;49.462;11.000;2023-03-19T07:30:11;8.48;;;5.70;;
37288;SDS011;23174;49.462;11.000;2023-03-19T07:32:13;7.10;;;4.80;;
37288;SDS011;23174;49.462;11.000;2023-03-19T07:34:14;6.57;;;5.13;;
37288;SDS011;23174;49.462;11.000;2023-03-19T07:36:15;7.45;;;5.32;;
37288;SDS011;23174;49.462;11.000;2023-03-19T07:38:16;6.47;;;5.43;;
37288;SDS011;23174;49.462;11.000;2023-03-19T07:40:17;6.13;;;4.72;;
37288;SDS011;23174;49.462;11.000;2023-03-19T07:42:18;4.63;;;4.15;;
37288;SDS011;23174;49.462;11.000;2023-03-19T07:44:18;6.63;;;4.68;;
37288;SDS011;23174;49.462;11.000;2023-03-19T07:46:19;4.80;;;3.78;;
37288;SDS011;23174;49.462;11.000;2023-03-19T07:48:20;4.00;;;3.55;;
37288;SDS011;23174;49.462;11.000;2023-03-19T07:50:21;4.80;;;3.83;;
37288;SDS011;23174;49.462;11.000;2023-03-19T07:52:21;4.63;;;3.50;;
37288;SDS011;23174;49.462;11.000;2023-03-19T07:54:23;4.00;;;3.03;;
37288;SDS011;23174;49.462;11.000;2023-03-19T07:56:23;3.30;;;2.60;;
37288;SDS011;23174;49.462;11.000;2023-03-19T07:58:24;2.80;;;2.60;;
37288;SDS011;23174;49.462;11.000;2023-03-19T08:00:25;4.45;;;2.70;;
37288;SDS011;23174;49.462;11.000;2023-03-19T08:02:26;5.65;;;2.42;;
37288;SDS011;23174;49.462;11.000;2023-03-19T08:04:27;2.90;;;2.65;;
37288;SDS011;23174;49.462;11.000;2023-03-19T08:06:27;3.03;;;2.70;;
37288;SDS011;23174;49.462;11.000;2023-03-19T08:08:28;3.08;;;2.60;;
37288;SDS011;23174;49.462;11.000;2023-03-19T08:10:29;2.90;;;2.70;;
37288;SDS011;23174;49.462;11.000;2023-03-19T08:12:30;2.45;;;2.10;;
37288;SDS011;23174;49.462;11.000;2023-03-19T08:14:32;2.28;;;2.08;;
37288;SDS011;23174;49.462;11.000;2023-03-19T08:16:33;8.32;;;6.85;;
37288;SDS011;23174;49.462;11.000;2023-03-19T08:18:34;14.30;;;8.88;;
37288;SDS011;23174;49.462;11.000;2023-03-19T08:20:35;12.43;;;5.95;;
37288;SDS011;23174;49.462;11.000;2023-03-19T08:22:36;13.55;;;7.63;;
37288;SDS011;23174;49.462;11.000;2023-03-19T08:24:37;2.45;;;2.03;;
37288;SDS011;23174;49.462;11.000;2023-03-19T08:26:38;3.42;;;2.10;;
37288;SDS011;23174;49.462;11.000;2023-03-19T08:28:38;13.48;;;7.78;;
37288;SDS011;23174;49.462;11.000;2023-03-19T08:30:39;2.58;;;2.28;;
37288;SDS011;23174;49.462;11.000;2023-03-19T08:32:40;2.58;;;2.13;;
37288;SDS011;23174;49.462;11.000;2023-03-19T08:34:40;4.65;;;2.08;;
37288;SDS011;23174;49.462;11.000;2023-03-19T08:36:41;3.58;;;2.33;;
37288;SDS011;23174;49.462;11.000;2023-03-19T08:38:42;9.48;;;6.10;;
37288;SDS011;23174;49.462;11.000;2023-03-19T08:40:42;2.60;;;2.40;;
37288;SDS011;23174;49.462;11.000;2023-03-19T08:42:43;1.67;;;1.58;;
37288;SDS011;23174;49.462;11.000;2023-03-19T08:44:44;7.25;;;4.82;;
37288;SDS011;23174;49.462;11.000;2023-03-19T08:46:44;1.50;;;1.40;;
37288;SDS011;23174;49.462;11.000;2023-03-19T08:48:45;5.03;;;2.53;;
37288;SDS011;23174;49.462;11.000;2023-03-19T08:50:51;2.67;;;2.35;;
37288;SDS011;23174;49.462;11.000;2023-03-19T08:52:56;7.53;;;4.25;;
37288;SDS011;23174;49.462;11.000;2023-03-19T08:54:56;3.45;;;2.80;;
37288;SDS011;23174;49.462;11.000;2023-03-19T08:56:58;2.42;;;2.22;;
37288;SDS011;23174;49.462;11.000;2023-03-19T08:59:00;4.68;;;3.58;;
37288;SDS011;23174;49.462;11.000;2023-03-19T09:01:07;3.22;;;2.83;;
37288;SDS011;23174;49.462;11.000;2023-03-19T09:03:09;3.60;;;2.47;;
37288;SDS011;23174;49.462;11.000;2023-03-19T09:05:10;4.28;;;3.80;;
37288;SDS011;23174;49.462;11.000;2023-03-19T09:07:11;3.80;;;3.17;;
37288;SDS011;23174;49.462;11.000;2023-03-19T09:09:12;2.72;;;2.25;;
37288;SDS011;23174;49.462;11.000;2023-03-19T09:11:12;2.30;;;2.10;;
37288;SDS011;23174;49.462;11.000;2023-03-19T09:13:15;4.97;;;4.05;;
37288;SDS011;23174;49.462;11.000;2023-03-19T09:15:16;4.30;;;3.42;;
37288;SDS011;23174;49.462;11.000;2023-03-19T09:17:18;6.57;;;3.33;;
37288;SDS011;23174;49.462;11.000;2023-03-19T09:19:18;5.65;;;3.92;;
37288;SDS011;23174;49.462;11.000;2023-03-19T09:21:22;4.82;;;2.60;;
37288;SDS011;23174;49.462;11.000;2023-03-19T09:23:23;5.22;;;3.53;;
37288;SDS011;23174;49.462;11.000;2023-03-19T09:25:23;5.55;;;4.32;;
37288;SDS011;23174;49.462;11.000;2023-03-19T09:27:24;1.55;;;0.75;;
37288;SDS011;23174;49.462;11.000;2023-03-19T09:29:25;0.35;;;0.35;;
37288;SDS011;23174;49.462;11.000;2023-03-19T09:31:25;0.68;;;0.50;;
37288;SDS011;23174;49.462;11.000;2023-03-19T09:33:26;0.20;;;0.20;;
37288;SDS011;23174;49.462;11.000;2023-03-19T09:35:27;0.40;;;0.40;;
37288;SDS011;23174;49.462;11.000;2023-03-19T09:37:30;0.63;;;0.63;;
37288;SDS011;23174;49.462;11.000;2023-03-19T09:39:31;0.10;;;0.10;;
37288;SDS011;23174;49.462;11.000;2023-03-19T09:43:58;1.55;;;1.17;;
37288;SDS011;23174;49.462;11.000;2023-03-19T09:46:00;0.32;;;0.32;;
37288;SDS011;23174;49.462;11.000;2023-03-19T09:48:18;0.17;;;0.17;;
37288;SDS011;23174;49.462;11.000;2023-03-19T09:50:34;0.73;;;0.60;;
37288;SDS011;23174;49.462;11.000;2023-03-19T09:54:54;0.32;;;0.32;;
37288;SDS011;23174;49.462;11.000;2023-03-19T09:56:58;0.25;;;0.25;;
37288;SDS011;23174;49.462;11.000;2023-03-19T09:58:59;1.00;;;0.55;;
37288;SDS011;23174;49.462;11.000;2023-03-19T10:01:00;0.20;;;0.20;;
37288;SDS011;23174;49.462;11.000;2023-03-19T10:03:07;0.30;;;0.30;;
37288;SDS011;23174;49.462;11.000;2023-03-19T10:16:40;1.33;;;0.68;;
37288;SDS011;23174;49.462;11.000;2023-03-19T10:18:43;0.43;;;0.43;;
37288;SDS011;23174;49.462;11.000;2023-03-19T10:20:52;0.10;;;0.10;;
37288;SDS011;23174;49.462;11.000;2023-03-19T10:25:25;0.38;;;0.38;;
37288;SDS011;23174;49.462;11.000;2023-03-19T10:27:28;0.52;;;0.32;;
37288;SDS011;23174;49.462;11.000;2023-03-19T10:29:29;0.47;;;0.30;;
37288;SDS011;23174;49.462;11.000;2023-03-19T10:31:41;0.55;;;0.25;;
37288;SDS011;23174;49.462;11.000;2023-03-19T10:36:14;0.20;;;0.20;;
37288;SDS011;23174;49.462;11.000;2023-03-19T10:38:21;0.20;;;0.20;;
37288;SDS011;23174;49.462;11.000;2023-03-19T10:40:35;0.25;;;0.25;;
37288;SDS011;23174;49.462;11.000;2023-03-19T10:45:00;0.43;;;0.35;;
37288;SDS011;23174;49.462;11.000;2023-03-19T10:47:12;0.20;;;0.20;;
37288;SDS011;23174;49.462;11.000;2023-03-19T10:49:14;0.30;;;0.30;;
37288;SDS011;23174;49.462;11.000;2023-03-19T10:51:16;0.35;;;0.35;;
37288;SDS011;23174;49.462;11.000;2023-03-19T10:53:33;1.65;;;0.63;;
37288;SDS011;23174;49.462;11.000;2023-03-19T10:55:50;0.40;;;0.40;;
37288;SDS011;23174;49.462;11.000;2023-03-19T10:58:04;0.15;;;0.15;;
37288;SDS011;23174;49.462;11.000;2023-03-19T11:00:18;0.10;;;0.10;;
37288;SDS011;23174;49.462;11.000;2023-03-19T11:02:24;0.05;;;0.05;;
37288;SDS011;23174;49.462;11.000;2023-03-19T11:04:29;0.35;;;0.25;;
37288;SDS011;23174;49.462;11.000;2023-03-19T11:08:37;0.00;;;0.00;;
37288;SDS011;23174;49.462;11.000;2023-03-19T11:10:43;0.38;;;0.20;;
37288;SDS011;23174;49.462;11.000;2023-03-19T11:12:55;0.40;;;0.25;;
37288;SDS011;23174;49.462;11.000;2023-03-19T11:14:59;0.57;;;0.38;;
37288;SDS011;23174;49.462;11.000;2023-03-19T11:19:40;0.70;;;0.35;;
37288;SDS011;23174;49.462;11.000;2023-03-19T11:21:42;0.20;;;0.20;;
37288;SDS011;23174;49.462;11.000;2023-03-19T11:23:59;0.55;;;0.55;;
37288;SDS011;23174;49.462;11.000;2023-03-19T11:26:02;0.17;;;0.17;;
37288;SDS011;23174;49.462;11.000;2023-03-19T11:28:36;0.25;;;0.25;;
37288;SDS011;23174;49.462;11.000;2023-03-19T11:30:38;0.35;;;0.35;;
37288;SDS011;23174;49.462;11.000;2023-03-19T11:41:45;2.60;;;2.08;;
37288;SDS011;23174;49.462;11.000;2023-03-19T11:46:15;1.90;;;1.80;;
37288;SDS011;23174;49.462;11.000;2023-03-19T12:00:13;2.03;;;1.70;;
37288;SDS011;23174;49.462;11.000;2023-03-19T12:04:44;3.75;;;2.42;;
37288;SDS011;23174;49.462;11.000;2023-03-19T12:14:01;2.35;;;2.15;;
37288;SDS011;23174;49.462;11.000;2023-03-19T12:16:42;2.47;;;2.28;;
37288;SDS011;23174;49.462;11.000;2023-03-19T12:19:26;2.50;;;2.30;;
37288;SDS011;23174;49.462;11.000;2023-03-19T12:21:35;4.88;;;2.38;;
37288;SDS011;23174;49.462;11.000;2023-03-19T12:30:33;2.97;;;1.88;;
37288;SDS011;23174;49.462;11.000;2023-03-19T12:32:48;1.98;;;1.77;;
37288;SDS011;23174;49.462;11.000;2023-03-19T12:34:54;2.72;;;2.30;;
37288;SDS011;23174;49.462;11.000;2023-03-19T12:39:05;2.15;;;1.98;;
37288;SDS011;23174;49.462;11.000;2023-03-19T12:41:25;2.83;;;1.90;;
37288;SDS011;23174;49.462;11.000;2023-03-19T12:43:43;2.40;;;1.90;;
37288;SDS011;23174;49.462;11.000;2023-03-19T12:45:57;2.63;;;1.85;;
37288;SDS011;23174;49.462;11.000;2023-03-19T12:48:07;3.90;;;1.77;;
37288;SDS011;23174;49.462;11.000;2023-03-19T12:50:23;2.45;;;1.80;;
37288;SDS011;23174;49.462;11.000;2023-03-19T12:52:43;1.92;;;1.50;;
37288;SDS011;23174;49.462;11.000;2023-03-19T12:55:32;1.67;;;1.58;;
37288;SDS011;23174;49.462;11.000;2023-03-19T12:57:31;0.82;;;0.80;;
37288;SDS011;23174;49.462;11.000;2023-03-19T13:02:00;1.52;;;0.70;;
37288;SDS011;23174;49.462;11.000;2023-03-19T13:04:49;0.70;;;0.70;;
37288;SDS011;23174;49.462;11.000;2023-03-19T13:06:57;0.70;;;0.70;;
37288;SDS011;23174;49.462;11.000;2023-03-19T13:09:27;0.77;;;0.77;;
37288;SDS011;23174;49.462;11.000;2023-03-19T13:21:08;2.33;;;2.10;;
37288;SDS011;23174;49.462;11.000;2023-03-19T13:23:33;2.00;;;1.90;;
37288;SDS011;23174;49.462;11.000;2023-03-19T13:25:39;2.20;;;2.00;;
37288;SDS011;23174;49.462;11.000;2023-03-19T13:27:41;2.10;;;1.73;;
37288;SDS011;23174;49.462;11.000;2023-03-19T13:29:52;2.08;;;1.85;;